»·PEaware :: N326LP KAPV-KWHP

N326LP :: KAPV-KWHP

FLIGHT INFORMATION

Flight Status: Arrived
Operator: Privately registered:
United States
More flights under this callsign
Pilot: Jon S. (43478)
Aircraft: CESSNA 172 SKYHAWK
(C172)
More flights by this aircraft type
Origin: KAPV Apple Valley
United States
Destination: KWHP Whiteman
United States
More flights between these airports :: More routes between these airports
Route: LANGE PMD
File this flight plan on PilotEdge
Remarks:
Altitude:
(Current/Filed)
8,500ft
Speed:
(Current/Filed)
110kts
Departed: 10-Sep-23 09:46 AM
Arrived: 10-Sep-23 10:43 AM
Distance/Time
Traveled:
64nm/0:56
Distance/Time
To Go:
Arrived

Flight Plot

Page will automatically refresh every two minutes.

Flight plan parsing failed; only flown route is shown


Map Options




Map Legend


Flown Route
Filed Route
Departure Airport
Arrival Airport
Navaid (VOR, NDB)
Fix

Horizontal Profiles

Position Reports

Time Latitude Longitude Heading Altitude Ground
Speed
10-Sep-23 09:39 34.571053 -117.190720 89 2963ft 0kts
10-Sep-23 09:40 34.571053 -117.190720 89 2963ft 0kts
10-Sep-23 09:41 34.571053 -117.190720 89 2963ft 0kts
10-Sep-23 09:42 34.571053 -117.190720 89 2963ft 0kts
10-Sep-23 09:43 34.571048 -117.190280 95 2964ft 6kts
10-Sep-23 09:44 34.570778 -117.189566 119 2964ft 0kts
10-Sep-23 09:45 34.577297 -117.186202 19 3045ft 76kts
10-Sep-23 09:46 34.597940 -117.178068 55 3863ft 68kts
10-Sep-23 09:47 34.583281 -117.171255 178 4583ft 69kts
10-Sep-23 09:48 34.570946 -117.189504 266 5189ft 88kts
10-Sep-23 09:49 34.573508 -117.222024 279 5708ft 107kts
10-Sep-23 09:50 34.579402 -117.261613 276 6122ft 121kts
10-Sep-23 09:51 34.583801 -117.301923 274 6584ft 120kts
10-Sep-23 09:52 34.590902 -117.343085 283 6799ft 127kts
10-Sep-23 09:53 34.594485 -117.384796 267 6764ft 130kts
10-Sep-23 09:54 34.596762 -117.426859 271 6493ft 126kts
10-Sep-23 09:55 34.598860 -117.468891 269 6437ft 120kts
10-Sep-23 09:56 34.600312 -117.510890 272 6536ft 126kts
10-Sep-23 09:58 34.602991 -117.554887 271 6547ft 132kts
10-Sep-23 09:59 34.605639 -117.599742 271 6558ft 134kts
10-Sep-23 10:00 34.609033 -117.644908 271 6552ft 132kts
10-Sep-23 10:01 34.612549 -117.687806 271 6533ft 123kts
10-Sep-23 10:02 34.616024 -117.729169 271 6535ft 125kts
10-Sep-23 10:03 34.619521 -117.772190 271 6544ft 129kts
10-Sep-23 10:04 34.622997 -117.815768 271 6557ft 129kts
10-Sep-23 10:05 34.626461 -117.859555 271 6547ft 130kts
10-Sep-23 10:06 34.631039 -117.903188 281 6546ft 131kts
10-Sep-23 10:07 34.643176 -117.945113 286 6549ft 131kts
10-Sep-23 10:08 34.656411 -117.986135 299 6543ft 128kts
10-Sep-23 10:09 34.679653 -118.018090 316 6428ft 123kts
10-Sep-23 10:10 34.707804 -118.042832 328 6201ft 129kts
10-Sep-23 10:11 34.737382 -118.067210 325 5652ft 128kts
10-Sep-23 10:12 34.761687 -118.098942 292 4734ft 119kts
10-Sep-23 10:13 34.764109 -118.133777 251 3950ft 103kts
10-Sep-23 10:14 34.755235 -118.165216 251 3354ft 84kts
10-Sep-23 10:15 34.747997 -118.192403 254 2805ft 83kts
10-Sep-23 10:16 34.741748 -118.215978 252 2341ft 39kts
10-Sep-23 10:17 34.740369 -118.218150 157 2342ft 0kts
10-Sep-23 10:18 34.741263 -118.214084 0 2339ft 0kts
10-Sep-23 10:19 34.742953 -118.207811 90 2336ft 19kts
10-Sep-23 10:20 34.743319 -118.207064 350 2336ft 0kts
10-Sep-23 10:21 34.741829 -118.215900 251 2434ft 75kts
10-Sep-23 10:22 34.733787 -118.239629 218 3177ft 80kts
10-Sep-23 10:23 34.712556 -118.241843 172 3931ft 77kts
10-Sep-23 10:24 34.689620 -118.242577 176 4720ft 77kts
10-Sep-23 10:24 34.672264 -118.245239 187 5318ft 78kts
10-Sep-23 10:26 34.645983 -118.256623 195 6065ft 90kts
10-Sep-23 10:27 34.621657 -118.271638 204 6504ft 116kts
10-Sep-23 10:28 34.591041 -118.291761 204 6542ft 130kts
10-Sep-23 10:28 34.563483 -118.307484 204 6545ft 127kts
10-Sep-23 10:29 34.532370 -118.324921 204 6518ft 118kts
10-Sep-23 10:30 34.504169 -118.343813 204 6519ft 113kts
10-Sep-23 10:31 34.479775 -118.367269 226 6323ft 113kts
10-Sep-23 10:33 34.455579 -118.400764 222 5566ft 113kts
10-Sep-23 10:33 34.437528 -118.423123 220 4992ft 111kts
10-Sep-23 10:34 34.416182 -118.449723 218 4436ft 109kts
10-Sep-23 10:35 34.393931 -118.473567 212 4368ft 107kts
10-Sep-23 10:36 34.368649 -118.492364 196 4440ft 107kts
10-Sep-23 10:37 34.340169 -118.493790 158 4015ft 102kts
10-Sep-23 10:38 34.316680 -118.474862 137 3145ft 102kts
10-Sep-23 10:39 34.295672 -118.451647 136 2231ft 102kts
10-Sep-23 10:40 34.277587 -118.432720 137 1560ft 77kts
10-Sep-23 10:41 34.262350 -118.416680 137 1011ft 66kts
10-Sep-23 10:42 34.258404 -118.411846 318 985ft 15kts
10-Sep-23 10:43 34.260681 -118.412088 315 999ft 0kts

Navigation Log

Ident Type
Flight plan parsing failed, navigation log unavailable